createdAt,value
2023-02-22T00:02:25.134Z,2.45
2023-02-22T00:04:52.478Z,2.05
2023-02-22T00:07:21.404Z,2.13
2023-02-22T00:09:49.477Z,2.28
2023-02-22T00:12:17.213Z,1.75
2023-02-22T00:14:44.541Z,2.22
2023-02-22T00:17:13.479Z,1.15
2023-02-22T00:19:40.777Z,2.92
2023-02-22T00:22:08.459Z,2.58
2023-02-22T00:24:36.115Z,3.05
2023-02-22T00:27:03.870Z,2.40
2023-02-22T00:29:31.259Z,2.80
2023-02-22T00:31:59.163Z,2.97
2023-02-22T00:34:26.566Z,2.92
2023-02-22T00:36:54.499Z,2.35
2023-02-22T00:39:21.853Z,3.10
2023-02-22T00:41:49.765Z,2.10
2023-02-22T00:44:17.163Z,2.42
2023-02-22T00:46:44.758Z,2.25
2023-02-22T00:49:12.067Z,3.53
2023-02-22T00:51:39.911Z,3.00
2023-02-22T00:54:07.221Z,2.28
2023-02-22T00:56:35.380Z,2.67
2023-02-22T00:59:02.862Z,2.78
2023-02-22T01:01:31.437Z,2.75
2023-02-22T01:03:59.119Z,2.95
2023-02-22T01:06:26.975Z,2.78
2023-02-22T01:08:54.288Z,3.47
2023-02-22T01:11:22.393Z,2.78
2023-02-22T01:13:49.806Z,2.40
2023-02-22T01:16:17.583Z,3.53
2023-02-22T01:18:44.924Z,3.50
2023-02-22T01:21:12.749Z,2.10
2023-02-22T01:23:40.124Z,2.35
2023-02-22T01:26:07.855Z,3.22
2023-02-22T01:28:35.272Z,2.90
2023-02-22T01:31:03.217Z,2.53
2023-02-22T01:33:31.196Z,2.00
2023-02-22T01:35:59.989Z,3.03
2023-02-22T01:38:27.351Z,1.98
2023-02-22T01:40:54.961Z,2.28
2023-02-22T01:43:30.693Z,2.50
2023-02-22T01:46:21.055Z,2.35
2023-02-22T01:48:51.349Z,1.90
2023-02-22T01:51:22.512Z,2.60
2023-02-22T01:53:52.724Z,2.67
2023-02-22T01:56:22.041Z,1.80
2023-02-22T01:58:54.816Z,2.35
2023-02-22T02:01:23.537Z,2.63
2023-02-22T02:03:52.811Z,2.65
2023-02-22T02:06:20.826Z,2.47
2023-02-22T02:08:51.667Z,2.40
2023-02-22T02:11:20.885Z,3.60
2023-02-22T02:13:50.909Z,6.68
2023-02-22T02:16:18.917Z,9.30
2023-02-22T02:18:46.277Z,19.17
2023-02-22T02:21:24.170Z,6.85
2023-02-22T02:24:03.551Z,4.85
2023-02-22T02:26:52.340Z,2.90
2023-02-22T02:29:38.516Z,4.30
2023-02-22T02:32:25.158Z,5.82
2023-02-22T02:35:11.368Z,5.38
2023-02-22T02:37:52.486Z,5.75
2023-02-22T02:40:47.645Z,6.97
2023-02-22T02:43:15.328Z,10.57
2023-02-22T02:45:54.992Z,5.45
2023-02-22T02:48:27.488Z,3.05
2023-02-22T02:50:58.160Z,3.33
2023-02-22T02:53:32.677Z,2.20
2023-02-22T02:56:00.457Z,3.60
2023-02-22T02:58:28.606Z,3.38
2023-02-22T03:00:57.959Z,3.15
2023-02-22T03:03:37.470Z,3.47
2023-02-22T03:06:07.818Z,4.28
2023-02-22T03:08:38.373Z,4.93
2023-02-22T03:11:29.264Z,3.45
2023-02-22T03:14:17.896Z,3.00
2023-02-22T03:16:48.024Z,2.10
2023-02-22T03:19:21.254Z,2.42
2023-02-22T03:22:05.215Z,2.38
2023-02-22T03:24:36.662Z,2.00
2023-02-22T03:27:09.386Z,3.08
2023-02-22T03:29:40.096Z,2.20
2023-02-22T03:32:09.955Z,1.90
2023-02-22T03:34:41.525Z,2.67
2023-02-22T03:37:19.938Z,2.35
2023-02-22T03:39:48.042Z,3.30
2023-02-22T03:42:19.532Z,2.15
2023-02-22T03:44:48.328Z,2.67
2023-02-22T03:47:19.071Z,2.80
2023-02-22T03:49:51.984Z,4.45
2023-02-22T03:52:19.675Z,9.65
2023-02-22T03:54:47.393Z,7.15
2023-02-22T03:57:25.927Z,8.10
2023-02-22T03:59:53.751Z,7.32
2023-02-22T04:02:23.701Z,6.55
2023-02-22T04:04:51.562Z,7.10
2023-02-22T04:07:19.739Z,7.00
2023-02-22T04:09:47.377Z,9.70
2023-02-22T04:12:14.691Z,9.88
2023-02-22T04:14:42.328Z,10.63
2023-02-22T04:17:10.264Z,12.50
2023-02-22T04:19:37.958Z,9.40
2023-02-22T04:22:05.309Z,4.28
2023-02-22T04:24:32.976Z,5.20
2023-02-22T04:27:00.378Z,6.22
2023-02-22T04:29:28.004Z,11.57
2023-02-22T04:31:55.365Z,4.60
2023-02-22T04:34:22.989Z,7.47
2023-02-22T04:36:50.383Z,43.92
2023-02-22T04:39:18.030Z,51.65
2023-02-22T04:41:45.384Z,61.58
2023-02-22T04:44:13.054Z,60.92
2023-02-22T04:46:40.373Z,122.20
2023-02-22T04:49:08.103Z,140.95
2023-02-22T04:51:36.760Z,33.92
2023-02-22T04:54:04.551Z,170.65
2023-02-22T04:56:31.973Z,38.42
2023-02-22T04:58:59.590Z,76.63
2023-02-22T05:01:31.820Z,12.40
2023-02-22T05:03:59.413Z,12.40
2023-02-22T05:06:26.759Z,15.77
2023-02-22T05:08:54.457Z,9.10
2023-02-22T05:11:22.268Z,8.18
2023-02-22T05:13:49.952Z,6.70
2023-02-22T05:16:17.338Z,11.60
2023-02-22T05:18:44.965Z,11.23
2023-02-22T05:21:13.524Z,8.38
2023-02-22T05:23:41.577Z,121.60
2023-02-22T05:26:11.678Z,268.95
2023-02-22T05:28:39.785Z,111.70
2023-02-22T05:31:07.427Z,43.78
2023-02-22T05:33:35.332Z,33.67
2023-02-22T05:36:02.972Z,16.35
2023-02-22T05:38:30.677Z,26.88
2023-02-22T05:40:57.986Z,26.23
2023-02-22T05:43:25.621Z,74.05
2023-02-22T05:45:52.962Z,11.57
2023-02-22T05:48:22.532Z,16.77
2023-02-22T05:50:50.249Z,33.83
2023-02-22T05:53:17.889Z,28.70
2023-02-22T05:55:46.559Z,13.20
2023-02-22T05:58:15.131Z,13.20
2023-02-22T06:00:42.486Z,7.15
2023-02-22T06:03:11.091Z,7.05
2023-02-22T06:05:38.535Z,4.78
2023-02-22T06:08:07.360Z,4.65
2023-02-22T06:10:34.713Z,3.65
2023-02-22T06:13:02.598Z,5.35
2023-02-22T06:15:29.985Z,5.32
2023-02-22T06:17:58.842Z,5.38
2023-02-22T06:20:27.922Z,10.63
2023-02-22T06:22:56.531Z,8.55
2023-02-22T06:25:25.082Z,6.82
2023-02-22T06:27:52.739Z,5.05
2023-02-22T06:30:21.479Z,5.97
2023-02-22T06:32:49.361Z,6.40
2023-02-22T06:35:17.058Z,11.73
2023-02-22T06:37:45.014Z,5.95
2023-02-22T06:40:12.948Z,5.13
2023-02-22T06:42:41.085Z,4.93
2023-02-22T06:45:09.171Z,5.78
2023-02-22T06:47:41.220Z,5.53
2023-02-22T06:50:09.339Z,6.00
2023-02-22T06:52:37.087Z,5.32
2023-02-22T06:55:04.487Z,6.18
2023-02-22T06:57:32.120Z,6.25
2023-02-22T06:59:59.429Z,6.38
2023-02-22T07:02:27.055Z,6.20
2023-02-22T07:04:54.454Z,5.93
2023-02-22T07:07:25.339Z,5.13
2023-02-22T07:09:52.887Z,5.82
2023-02-22T07:12:20.818Z,6.18
2023-02-22T07:14:48.104Z,7.22
2023-02-22T07:17:15.714Z,7.22
2023-02-22T07:19:43.026Z,9.70
2023-02-22T07:22:10.890Z,6.80
2023-02-22T07:24:38.201Z,5.22
2023-02-22T07:27:06.168Z,6.32
2023-02-22T07:29:35.949Z,6.45
2023-02-22T07:32:04.026Z,6.22
2023-02-22T07:34:31.347Z,6.05
2023-02-22T07:36:58.952Z,23.08
2023-02-22T07:39:27.080Z,48.17
2023-02-22T07:41:54.392Z,72.35
2023-02-22T07:44:21.319Z,81.32
2023-02-22T07:46:49.077Z,78.88
2023-02-22T07:49:16.462Z,83.07
2023-02-22T07:51:43.724Z,71.80
2023-02-22T07:54:10.640Z,73.53
2023-02-22T07:56:37.890Z,62.50
2023-02-22T07:59:04.790Z,71.80
2023-02-22T08:01:32.367Z,75.70
2023-02-22T08:03:59.371Z,67.18
2023-02-22T08:06:28.200Z,63.50
2023-02-22T08:08:55.161Z,66.28
2023-02-22T08:11:22.499Z,65.85
2023-02-22T08:13:49.432Z,61.13
2023-02-22T08:16:16.711Z,64.40
2023-02-22T08:18:43.650Z,54.13
2023-02-22T08:21:11.169Z,51.47
2023-02-22T08:23:38.820Z,57.03
2023-02-22T08:26:15.540Z,56.15
2023-02-22T08:28:43.197Z,55.22
2023-02-22T08:31:10.595Z,50.88
2023-02-22T08:33:37.708Z,53.63
2023-02-22T08:36:05.458Z,55.33
2023-02-22T08:38:34.001Z,53.25
2023-02-22T08:41:01.315Z,50.15
2023-02-22T08:43:28.648Z,52.78
2023-02-22T08:45:57.636Z,56.03
2023-02-22T08:48:24.988Z,56.88
2023-02-22T08:50:52.304Z,59.70
2023-02-22T08:53:19.224Z,58.58
2023-02-22T08:55:46.610Z,58.75
2023-02-22T08:58:13.795Z,58.45
2023-02-22T09:00:44.563Z,58.60
2023-02-22T09:03:14.503Z,57.70
2023-02-22T09:05:43.726Z,63.25
2023-02-22T09:08:10.864Z,61.75
2023-02-22T09:10:38.188Z,62.75
2023-02-22T09:13:05.327Z,62.70
2023-02-22T09:15:35.924Z,67.25
2023-02-22T09:18:04.021Z,65.65
2023-02-22T09:20:31.359Z,63.83
2023-02-22T09:22:58.347Z,61.72
2023-02-22T09:25:27.176Z,61.58
2023-02-22T09:27:55.161Z,61.53
2023-02-22T09:30:32.256Z,59.15
2023-02-22T09:33:05.819Z,58.63
2023-02-22T09:35:36.143Z,58.60
2023-02-22T09:38:06.319Z,57.85
2023-02-22T09:40:44.733Z,59.58
2023-02-22T09:43:31.183Z,58.45
2023-02-22T09:46:13.494Z,56.38
2023-02-22T09:48:57.947Z,56.03
2023-02-22T09:51:49.358Z,56.03
2023-02-22T09:54:23.072Z,56.28
2023-02-22T09:56:54.599Z,57.35
2023-02-22T09:59:27.395Z,57.58
2023-02-22T10:02:02.296Z,58.28
2023-02-22T10:05:08.617Z,55.40
2023-02-22T10:07:43.157Z,57.03
2023-02-22T10:10:18.746Z,56.78
2023-02-22T10:13:09.243Z,55.10
2023-02-22T10:15:48.309Z,55.67
2023-02-22T10:18:40.056Z,54.45
2023-02-22T10:21:22.021Z,53.60
2023-02-22T10:24:07.598Z,56.75
2023-02-22T10:26:37.883Z,54.55
2023-02-22T10:29:17.378Z,56.13
2023-02-22T10:31:52.372Z,58.88
2023-02-22T10:34:29.844Z,59.00
2023-02-22T10:37:14.530Z,58.40
2023-02-22T10:39:44.532Z,57.28
2023-02-22T10:42:11.637Z,56.25
2023-02-22T10:44:40.615Z,56.35
2023-02-22T10:47:10.520Z,57.42
2023-02-22T10:49:44.819Z,55.97
2023-02-22T10:52:27.614Z,58.05
2023-02-22T10:55:13.773Z,59.65
2023-02-22T10:57:43.947Z,58.38
2023-02-22T11:00:19.526Z,58.05
2023-02-22T11:03:01.608Z,57.78
2023-02-22T11:05:36.619Z,54.83
2023-02-22T11:08:21.648Z,56.08
2023-02-22T11:10:54.249Z,54.28
2023-02-22T11:13:31.566Z,55.38
2023-02-22T11:16:03.204Z,53.78
2023-02-22T11:18:34.965Z,54.42
2023-02-22T11:21:12.303Z,57.53
2023-02-22T11:23:44.734Z,59.85
2023-02-22T11:26:20.393Z,56.53
2023-02-22T11:28:51.105Z,55.50
2023-02-22T11:31:25.720Z,55.75
2023-02-22T11:34:00.214Z,51.75
2023-02-22T11:36:40.953Z,52.03
2023-02-22T11:39:27.694Z,52.25
2023-02-22T11:41:56.398Z,54.55
2023-02-22T11:44:29.799Z,55.65
2023-02-22T11:47:06.709Z,56.35
2023-02-22T11:49:39.185Z,55.58
2023-02-22T11:52:12.621Z,57.45
2023-02-22T11:54:48.550Z,54.58
2023-02-22T11:58:05.785Z,53.40
2023-02-22T12:01:11.876Z,53.53
2023-02-22T12:03:51.915Z,53.17
2023-02-22T12:06:27.178Z,55.20
2023-02-22T12:09:06.434Z,55.55
2023-02-22T12:11:44.368Z,58.92
2023-02-22T12:14:34.134Z,60.95
2023-02-22T12:17:30.916Z,60.05
2023-02-22T12:20:10.326Z,67.68
2023-02-22T12:22:44.400Z,74.40
2023-02-22T12:25:20.513Z,51.50
2023-02-22T12:27:52.987Z,64.28
2023-02-22T12:30:25.934Z,51.53
2023-02-22T12:32:56.271Z,50.83
2023-02-22T12:35:34.833Z,47.85
2023-02-22T12:38:10.310Z,46.50
2023-02-22T12:40:58.080Z,44.75
2023-02-22T12:43:41.168Z,41.50
2023-02-22T12:46:24.318Z,40.45
2023-02-22T12:49:03.363Z,43.70
2023-02-22T12:51:33.750Z,53.42
2023-02-22T12:54:22.313Z,59.30
2023-02-22T12:56:53.692Z,46.28
2023-02-22T12:59:35.248Z,51.15
2023-02-22T13:02:32.666Z,45.28
2023-02-22T13:05:01.700Z,42.38
2023-02-22T13:07:50.747Z,42.35
2023-02-22T13:10:49.032Z,39.90
2023-02-22T13:13:29.726Z,40.92
2023-02-22T13:16:15.974Z,43.70
2023-02-22T13:19:01.157Z,43.03
2023-02-22T13:21:49.969Z,40.83
2023-02-22T13:24:30.892Z,43.78
2023-02-22T13:27:12.587Z,43.75
2023-02-22T13:29:43.293Z,59.38
2023-02-22T13:32:13.451Z,70.68
2023-02-22T13:35:08.741Z,46.63
2023-02-22T13:38:11.045Z,42.42
2023-02-22T13:41:12.323Z,38.38
2023-02-22T13:43:53.974Z,40.83
2023-02-22T13:46:31.925Z,41.70
2023-02-22T13:49:16.940Z,44.35
2023-02-22T13:51:52.116Z,42.47
2023-02-22T13:54:29.558Z,44.13
2023-02-22T13:56:58.107Z,40.97
2023-02-22T13:59:36.243Z,45.53
2023-02-22T14:02:07.872Z,42.95
2023-02-22T14:04:41.842Z,43.83
2023-02-22T14:07:18.782Z,45.35
2023-02-22T14:09:48.925Z,41.58
2023-02-22T14:12:33.331Z,43.08
2023-02-22T14:15:29.538Z,41.15
2023-02-22T14:18:05.515Z,42.38
2023-02-22T14:20:35.985Z,41.95
2023-02-22T14:23:34.771Z,42.10
2023-02-22T14:26:14.190Z,40.42
2023-02-22T14:28:50.328Z,40.58
2023-02-22T14:31:35.869Z,39.63
2023-02-22T14:34:10.041Z,39.13
2023-02-22T14:36:58.114Z,40.80
2023-02-22T14:39:50.105Z,39.38
2023-02-22T14:42:33.218Z,40.17
2023-02-22T14:45:04.982Z,39.60
2023-02-22T14:47:39.893Z,39.85
2023-02-22T14:50:15.104Z,38.25
2023-02-22T14:52:46.371Z,37.97
2023-02-22T14:55:25.500Z,38.78
2023-02-22T14:57:59.184Z,39.38
2023-02-22T15:00:37.592Z,43.78
2023-02-22T15:03:04.927Z,38.47
2023-02-22T15:05:40.290Z,38.10
2023-02-22T15:08:09.080Z,37.70
2023-02-22T15:10:36.678Z,38.72
2023-02-22T15:13:09.501Z,37.20
2023-02-22T15:15:40.806Z,36.20
2023-02-22T15:18:32.865Z,36.15
2023-02-22T15:21:07.180Z,34.67
2023-02-22T15:23:46.967Z,34.40
2023-02-22T15:26:20.342Z,36.00
2023-02-22T15:28:53.797Z,40.65
2023-02-22T15:31:33.416Z,41.00
2023-02-22T15:34:31.278Z,42.33
2023-02-22T15:37:25.629Z,38.40
2023-02-22T15:39:59.595Z,42.50
2023-02-22T15:42:30.302Z,38.30
2023-02-22T15:44:58.053Z,39.78
2023-02-22T15:47:27.322Z,41.50
2023-02-22T15:50:15.297Z,40.50
2023-02-22T15:52:53.713Z,37.58
2023-02-22T15:55:26.037Z,36.78
2023-02-22T15:57:53.680Z,37.73
2023-02-22T16:00:35.879Z,44.15
2023-02-22T16:03:06.560Z,43.63
2023-02-22T16:05:55.667Z,35.00
2023-02-22T16:08:45.768Z,36.05
2023-02-22T16:11:43.285Z,36.88
2023-02-22T16:14:28.174Z,34.35
2023-02-22T16:17:32.979Z,31.85
2023-02-22T16:20:13.302Z,33.22
2023-02-22T16:22:46.533Z,34.15
2023-02-22T16:27:59.852Z,34.70
2023-02-22T16:30:34.380Z,32.95
2023-02-22T16:33:05.533Z,36.92
2023-02-22T16:35:35.788Z,33.63
2023-02-22T16:38:07.955Z,32.92
2023-02-22T16:40:39.457Z,31.23
2023-02-22T16:43:11.657Z,30.95
2023-02-22T16:45:41.982Z,32.05
2023-02-22T16:48:18.361Z,32.00
2023-02-22T16:50:45.989Z,32.00
2023-02-22T16:53:13.435Z,33.95
2023-02-22T16:55:44.682Z,29.10
2023-02-22T16:58:13.857Z,29.95
2023-02-22T17:00:42.298Z,30.45
2023-02-22T17:03:15.840Z,32.22
2023-02-22T17:05:43.744Z,30.50
2023-02-22T17:08:10.693Z,29.67
2023-02-22T17:10:38.281Z,27.65
2023-02-22T17:13:21.292Z,28.90
2023-02-22T17:15:50.398Z,26.80
2023-02-22T17:18:22.936Z,29.35
2023-02-22T17:20:51.649Z,35.60
2023-02-22T17:23:19.467Z,37.17
2023-02-22T17:25:55.759Z,41.05
2023-02-22T17:28:24.880Z,49.80
2023-02-22T17:30:54.293Z,36.33
2023-02-22T17:33:27.596Z,32.95
2023-02-22T17:35:57.734Z,29.20
2023-02-22T17:38:27.319Z,31.70
2023-02-22T17:40:56.787Z,31.73
2023-02-22T17:43:25.192Z,52.10
2023-02-22T17:45:53.857Z,36.90
2023-02-22T17:48:23.819Z,31.90
2023-02-22T17:50:52.436Z,31.55
2023-02-22T17:53:22.727Z,31.70
2023-02-22T17:55:51.052Z,31.23
2023-02-22T17:58:18.582Z,30.90
2023-02-22T18:00:49.210Z,31.38
2023-02-22T18:03:25.322Z,31.80
2023-02-22T18:05:57.479Z,37.05
2023-02-22T18:08:26.268Z,32.38
2023-02-22T18:10:56.608Z,28.75
2023-02-22T18:13:27.610Z,28.55
2023-02-22T18:15:59.864Z,27.92
2023-02-22T18:18:27.648Z,29.35
2023-02-22T18:20:59.467Z,28.40
2023-02-22T18:23:28.551Z,28.33
2023-02-22T18:26:09.768Z,28.63
2023-02-22T18:28:38.356Z,39.08
2023-02-22T18:31:11.379Z,36.15
2023-02-22T18:33:38.395Z,32.88
2023-02-22T18:36:07.564Z,33.30
2023-02-22T18:38:35.148Z,29.38
2023-02-22T18:41:05.472Z,29.30
2023-02-22T18:43:34.308Z,27.40
2023-02-22T18:46:22.302Z,27.60
2023-02-22T18:48:53.226Z,27.98
2023-02-22T18:51:21.036Z,27.40
2023-02-22T18:53:49.841Z,27.17
2023-02-22T18:56:22.412Z,27.90
2023-02-22T18:58:58.576Z,27.15
2023-02-22T19:01:26.388Z,28.80
2023-02-22T19:03:53.570Z,31.20
2023-02-22T19:06:24.304Z,28.42
2023-02-22T19:08:51.694Z,27.50
2023-02-22T19:11:22.383Z,28.88
2023-02-22T19:13:51.836Z,27.70
2023-02-22T19:16:20.773Z,26.48
2023-02-22T19:18:49.180Z,27.42
2023-02-22T19:21:16.737Z,28.17
2023-02-22T19:23:48.051Z,27.70
2023-02-22T19:26:23.807Z,27.92
2023-02-22T19:28:53.034Z,27.25
2023-02-22T19:31:29.529Z,27.77
2023-02-22T19:34:04.277Z,27.73
2023-02-22T19:36:31.712Z,27.73
2023-02-22T19:39:01.739Z,27.75
2023-02-22T19:41:29.652Z,27.33
2023-02-22T19:43:57.617Z,28.15
2023-02-22T19:46:25.371Z,28.10
2023-02-22T19:48:53.463Z,29.63
2023-02-22T19:51:25.261Z,28.02
2023-02-22T19:53:53.205Z,28.70
2023-02-22T19:56:27.299Z,29.02
2023-02-22T19:58:56.804Z,27.10
2023-02-22T20:01:27.822Z,26.70
2023-02-22T20:04:00.025Z,27.70
2023-02-22T20:06:40.344Z,28.27
2023-02-22T20:09:39.491Z,26.58
2023-02-22T20:12:07.794Z,26.45
2023-02-22T20:14:35.120Z,26.42
2023-02-22T20:17:02.385Z,27.02
2023-02-22T20:19:29.812Z,29.83
2023-02-22T20:21:57.715Z,29.45
2023-02-22T20:24:25.751Z,30.27
2023-02-22T20:26:55.979Z,33.30
2023-02-22T20:29:29.625Z,34.90
2023-02-22T20:31:59.237Z,37.20
2023-02-22T20:34:27.126Z,36.20
2023-02-22T20:36:54.482Z,34.88
2023-02-22T20:39:21.587Z,33.75
2023-02-22T20:41:48.992Z,36.20
2023-02-22T20:44:18.119Z,34.97
2023-02-22T20:46:47.218Z,33.45
2023-02-22T20:49:17.412Z,31.33
2023-02-22T20:51:48.014Z,30.02
2023-02-22T20:54:16.088Z,31.42
2023-02-22T20:56:45.472Z,33.53
2023-02-22T20:59:14.825Z,32.58
2023-02-22T21:01:42.990Z,32.00
2023-02-22T21:04:11.606Z,32.85
2023-02-22T21:06:40.502Z,35.15
2023-02-22T21:09:11.580Z,35.70
2023-02-22T21:11:40.006Z,34.75
2023-02-22T21:14:07.318Z,38.55
2023-02-22T21:16:36.632Z,42.45
2023-02-22T21:19:06.357Z,36.97
2023-02-22T21:21:35.163Z,35.40
2023-02-22T21:24:02.553Z,37.38
2023-02-22T21:26:32.694Z,35.97
2023-02-22T21:29:02.025Z,35.83
2023-02-22T21:31:31.613Z,30.48
2023-02-22T21:34:00.153Z,29.33
2023-02-22T21:36:28.171Z,30.90
2023-02-22T21:38:57.622Z,32.95
2023-02-22T21:41:27.891Z,28.80
2023-02-22T21:43:56.913Z,30.83
2023-02-22T21:46:25.839Z,27.27
2023-02-22T21:48:52.944Z,30.05
2023-02-22T21:51:23.628Z,29.88
2023-02-22T21:53:52.828Z,29.80
2023-02-22T21:56:27.571Z,27.27
2023-02-22T21:58:59.252Z,26.02
2023-02-22T22:01:28.987Z,29.17
2023-02-22T22:03:59.533Z,30.45
2023-02-22T22:06:28.414Z,30.75
2023-02-22T22:08:56.349Z,32.28
2023-02-22T22:11:25.017Z,32.95
2023-02-22T22:13:56.927Z,33.13
2023-02-22T22:16:27.161Z,35.20
2023-02-22T22:18:55.215Z,34.05
2023-02-22T22:21:24.019Z,33.55
2023-02-22T22:23:54.451Z,32.08
2023-02-22T22:26:24.576Z,34.60
2023-02-22T22:28:56.238Z,34.22
2023-02-22T22:31:26.032Z,33.35
2023-02-22T22:33:54.691Z,32.55
2023-02-22T22:36:24.317Z,32.00
2023-02-22T22:38:52.768Z,31.75
2023-02-22T22:41:21.778Z,33.88
2023-02-22T22:43:48.794Z,31.55
2023-02-22T22:46:17.756Z,33.20
2023-02-22T22:48:47.253Z,29.85
2023-02-22T22:51:19.628Z,28.10
2023-02-22T22:53:49.138Z,28.65
2023-02-22T22:56:26.213Z,29.20
2023-02-22T22:58:56.098Z,32.80
2023-02-22T23:01:33.311Z,35.60
2023-02-22T23:04:02.774Z,32.65
2023-02-22T23:06:33.238Z,31.58
2023-02-22T23:09:12.431Z,31.92
2023-02-22T23:11:45.380Z,33.28
2023-02-22T23:14:15.199Z,34.10
2023-02-22T23:16:42.778Z,33.00
2023-02-22T23:19:10.357Z,36.75
2023-02-22T23:21:38.824Z,34.03
2023-02-22T23:24:06.724Z,32.53
2023-02-22T23:26:34.892Z,33.25
2023-02-22T23:29:03.166Z,31.80
2023-02-22T23:31:32.044Z,30.15
2023-02-22T23:33:59.937Z,30.27
2023-02-22T23:36:27.674Z,30.42
2023-02-22T23:38:54.814Z,29.77
2023-02-22T23:41:25.044Z,30.70
2023-02-22T23:43:52.159Z,28.08
2023-02-22T23:46:19.804Z,28.23
2023-02-22T23:48:52.215Z,30.92
2023-02-22T23:51:25.187Z,28.40
2023-02-22T23:53:57.095Z,27.70
2023-02-22T23:56:28.727Z,26.02
2023-02-22T23:58:57.626Z,25.50
